Terminal Aerodrome Forecast
Issued by NWS Pueblo, CO

Home | Current Version | Previous Version | Text Only | Print | Product List | Glossary On
Versions: 1 2 3 4 5 6 7 8 9 10 11 12 13 14 15 16 17 18 19 20 21 22 23 24 25 26 27 28 29 30 31 32
000
FTUS45 KPUB 110520
TAFPUB
TAF
KPUB 110520Z 1106/1206 VRB06KT P6SM SCT200
     FM111800 12008KT P6SM FEW120 SCT150
     FM112200 28012KT P6SM VCTS SCT100CB BKN150
     FM120200 34010KT P6SM FEW080 SCT120=

USA.gov is the U.S. government's official web portal to all federal, state and local government web resources and services.